Strona główna
METAR-TAF:

METAR-TAF

Lotnisko :

Warsaw Municipal Airport

Warsaw, Indiana, Stany Zjednoczone

Szerokość geograficzna: 41-16-28N, Długość geograficzna: 085-50-24W, wysokość: 259 m

Aktualna obserwacja pogody

Raport powstał 13 minut temu, godzina 17:55 UTC
Wiatr 8 kt od zachodnio-południowy zachód
Temperatura 31°C
Wilgotność 46%
Ciśnienie 1019 hPa
Widzialność: 16.1 km
bezchmurnie

METAR: KASW 151755Z AUTO 24008KT 10SM CLR 31/18 A3009 RMK AO2

czas: 14:08 (18:08 UTC)


TAF: brakujący

Obserwacja i prognoza pogody dla ponad 4000 lotnisk (raport METAR i TAF).

Dostępne stacje oznaczono żółtymi i czerwonymi punktami na mapie.

Najedź kursorem aby zobaczyć nazwę stacji.

Kliknij aby zobaczyć obserwacje i prognozy pogody.

Aby zmienić mapę: kliknij na zielony przycisk z czarnym krzyżykiem, aby powiększyć; na zielony przycisk z myślnikiem, aby pomniejszyć; na zielone strzałki, aby przejść do map sąsiednich.


METAR-TAF: